sensor_id;sensor_type;location;lat;lon;timestamp;P1;durP1;ratioP1;P2;durP2;ratioP2
47287;SDS011;33020;53.008;13.558;2024-03-08T06:46:02;30.50;;;15.40;;
47287;SDS011;33020;53.008;13.558;2024-03-08T06:48:32;33.07;;;15.77;;
47287;SDS011;33020;53.008;13.558;2024-03-08T06:51:01;39.37;;;18.13;;
47287;SDS011;33020;53.008;13.558;2024-03-08T06:53:28;36.40;;;16.93;;
47287;SDS011;33020;53.008;13.558;2024-03-08T06:55:56;37.57;;;16.80;;
47287;SDS011;33020;53.008;13.558;2024-03-08T06:58:24;34.80;;;16.47;;
47287;SDS011;33020;53.008;13.558;2024-03-08T07:00:52;31.67;;;16.40;;
47287;SDS011;33020;53.008;13.558;2024-03-08T07:03:19;32.73;;;16.87;;
47287;SDS011;33020;53.008;13.558;2024-03-08T07:05:49;36.57;;;18.23;;
47287;SDS011;33020;53.008;13.558;2024-03-08T07:08:16;34.17;;;17.30;;
47287;SDS011;33020;53.008;13.558;2024-03-08T07:10:45;34.83;;;18.00;;
47287;SDS011;33020;53.008;13.558;2024-03-08T07:13:56;34.43;;;16.90;;
47287;SDS011;33020;53.008;13.558;2024-03-08T07:16:30;34.67;;;15.60;;
47287;SDS011;33020;53.008;13.558;2024-03-08T07:22:19;35.57;;;18.03;;
47287;SDS011;33020;53.008;13.558;2024-03-08T07:24:46;32.37;;;16.53;;
47287;SDS011;33020;53.008;13.558;2024-03-08T07:27:13;40.13;;;18.07;;
47287;SDS011;33020;53.008;13.558;2024-03-08T07:29:41;34.30;;;17.77;;
47287;SDS011;33020;53.008;13.558;2024-03-08T07:32:09;34.60;;;16.87;;
47287;SDS011;33020;53.008;13.558;2024-03-08T07:34:50;34.23;;;17.73;;
47287;SDS011;33020;53.008;13.558;2024-03-08T07:37:27;39.80;;;17.33;;
47287;SDS011;33020;53.008;13.558;2024-03-08T07:39:55;35.53;;;17.23;;
47287;SDS011;33020;53.008;13.558;2024-03-08T07:42:22;37.70;;;19.07;;
47287;SDS011;33020;53.008;13.558;2024-03-08T07:44:50;33.57;;;17.37;;
47287;SDS011;33020;53.008;13.558;2024-03-08T07:47:17;40.23;;;19.30;;
47287;SDS011;33020;53.008;13.558;2024-03-08T07:49:48;34.50;;;18.37;;
47287;SDS011;33020;53.008;13.558;2024-03-08T07:52:15;43.83;;;21.47;;
47287;SDS011;33020;53.008;13.558;2024-03-08T07:54:44;38.33;;;19.37;;
47287;SDS011;33020;53.008;13.558;2024-03-08T07:57:12;33.10;;;18.73;;
47287;SDS011;33020;53.008;13.558;2024-03-08T07:59:39;37.30;;;18.50;;
47287;SDS011;33020;53.008;13.558;2024-03-08T08:02:06;40.13;;;20.27;;
47287;SDS011;33020;53.008;13.558;2024-03-08T08:04:34;36.13;;;19.13;;
47287;SDS011;33020;53.008;13.558;2024-03-08T08:07:01;35.00;;;19.20;;
47287;SDS011;33020;53.008;13.558;2024-03-08T08:09:28;36.57;;;17.83;;
47287;SDS011;33020;53.008;13.558;2024-03-08T08:12:01;32.93;;;18.07;;
47287;SDS011;33020;53.008;13.558;2024-03-08T08:14:30;35.23;;;18.53;;
47287;SDS011;33020;53.008;13.558;2024-03-08T08:16:58;35.73;;;17.63;;
47287;SDS011;33020;53.008;13.558;2024-03-08T08:19:31;32.90;;;18.60;;
47287;SDS011;33020;53.008;13.558;2024-03-08T08:21:58;33.87;;;18.47;;
47287;SDS011;33020;53.008;13.558;2024-03-08T08:24:26;30.53;;;16.80;;
47287;SDS011;33020;53.008;13.558;2024-03-08T08:26:53;30.37;;;17.37;;
47287;SDS011;33020;53.008;13.558;2024-03-08T08:29:21;32.97;;;16.87;;
47287;SDS011;33020;53.008;13.558;2024-03-08T08:31:49;33.10;;;16.50;;
47287;SDS011;33020;53.008;13.558;2024-03-08T08:34:17;28.83;;;17.17;;
47287;SDS011;33020;53.008;13.558;2024-03-08T08:36:46;31.20;;;16.77;;
47287;SDS011;33020;53.008;13.558;2024-03-08T08:39:13;31.20;;;17.30;;
47287;SDS011;33020;53.008;13.558;2024-03-08T08:41:40;32.60;;;15.60;;
47287;SDS011;33020;53.008;13.558;2024-03-08T08:44:09;30.03;;;15.37;;
47287;SDS011;33020;53.008;13.558;2024-03-08T08:46:42;28.90;;;16.42;;
47287;SDS011;33020;53.008;13.558;2024-03-08T08:49:09;27.17;;;15.90;;
47287;SDS011;33020;53.008;13.558;2024-03-08T08:51:48;27.50;;;16.60;;
47287;SDS011;33020;53.008;13.558;2024-03-08T08:54:16;30.17;;;15.65;;
47287;SDS011;33020;53.008;13.558;2024-03-08T08:56:46;31.10;;;15.53;;
47287;SDS011;33020;53.008;13.558;2024-03-08T08:59:16;28.63;;;15.27;;
47287;SDS011;33020;53.008;13.558;2024-03-08T09:01:49;29.60;;;15.57;;
47287;SDS011;33020;53.008;13.558;2024-03-08T09:04:19;27.13;;;15.57;;
47287;SDS011;33020;53.008;13.558;2024-03-08T09:06:46;25.00;;;14.37;;
47287;SDS011;33020;53.008;13.558;2024-03-08T09:09:13;23.60;;;13.93;;
47287;SDS011;33020;53.008;13.558;2024-03-08T09:11:40;22.00;;;14.00;;
47287;SDS011;33020;53.008;13.558;2024-03-08T09:14:09;23.73;;;14.07;;
47287;SDS011;33020;53.008;13.558;2024-03-08T09:16:39;22.93;;;12.57;;
47287;SDS011;33020;53.008;13.558;2024-03-08T09:19:06;23.10;;;12.87;;
47287;SDS011;33020;53.008;13.558;2024-03-08T09:21:33;23.83;;;13.60;;
47287;SDS011;33020;53.008;13.558;2024-03-08T09:24:03;22.00;;;12.77;;
47287;SDS011;33020;53.008;13.558;2024-03-08T09:26:31;23.97;;;12.80;;
47287;SDS011;33020;53.008;13.558;2024-03-08T09:29:00;24.30;;;13.63;;
47287;SDS011;33020;53.008;13.558;2024-03-08T09:31:27;21.73;;;12.33;;
47287;SDS011;33020;53.008;13.558;2024-03-08T09:33:54;23.03;;;11.77;;
47287;SDS011;33020;53.008;13.558;2024-03-08T09:36:21;21.03;;;13.50;;
47287;SDS011;33020;53.008;13.558;2024-03-08T09:38:48;21.30;;;12.20;;
47287;SDS011;33020;53.008;13.558;2024-03-08T09:41:17;20.93;;;11.93;;
47287;SDS011;33020;53.008;13.558;2024-03-08T09:43:44;26.30;;;12.90;;
47287;SDS011;33020;53.008;13.558;2024-03-08T09:46:12;24.00;;;12.73;;
47287;SDS011;33020;53.008;13.558;2024-03-08T10:57:43;18.40;;;12.13;;
47287;SDS011;33020;53.008;13.558;2024-03-08T11:35:47;20.53;;;12.97;;
